createdAt,value
2023-05-02T00:00:54.040Z,34.96
2023-05-02T00:01:54.117Z,34.92
2023-05-02T00:02:54.331Z,34.92
2023-05-02T00:03:54.294Z,34.91
2023-05-02T00:04:54.236Z,34.93
2023-05-02T00:05:54.727Z,34.89
2023-05-02T00:06:54.462Z,34.91
2023-05-02T00:07:54.290Z,34.92
2023-05-02T00:08:54.415Z,34.90
2023-05-02T00:09:54.428Z,34.91
2023-05-02T00:10:54.729Z,34.92
2023-05-02T00:11:54.555Z,34.87
2023-05-02T00:12:54.592Z,34.92
2023-05-02T00:13:54.667Z,34.92
2023-05-02T00:14:54.737Z,34.90
2023-05-02T00:15:54.731Z,34.87
2023-05-02T00:16:54.742Z,34.86
2023-05-02T00:17:54.840Z,34.93
2023-05-02T00:18:54.844Z,34.88
2023-05-02T00:19:54.856Z,34.92
2023-05-02T00:20:55.227Z,34.91
2023-05-02T00:21:54.979Z,34.87
2023-05-02T00:22:55.020Z,34.84
2023-05-02T00:23:55.024Z,34.86
2023-05-02T00:24:55.052Z,34.90
2023-05-02T00:25:55.265Z,34.87
2023-05-02T00:26:55.114Z,34.86
2023-05-02T00:27:55.138Z,34.91
2023-05-02T00:28:55.206Z,34.87
2023-05-02T00:29:55.259Z,34.86
2023-05-02T00:30:55.800Z,34.86
2023-05-02T00:31:55.357Z,34.87
2023-05-02T00:32:55.477Z,34.86
2023-05-02T00:33:55.506Z,34.83
2023-05-02T00:34:55.532Z,34.82
2023-05-02T00:35:55.764Z,34.84
2023-05-02T00:36:55.680Z,34.81
2023-05-02T00:37:55.764Z,34.84
2023-05-02T00:38:55.774Z,34.82
2023-05-02T00:39:55.749Z,34.79
2023-05-02T00:40:56.274Z,34.82
2023-05-02T00:41:55.812Z,34.83
2023-05-02T00:42:55.877Z,34.79
2023-05-02T00:43:55.939Z,34.87
2023-05-02T00:44:56.006Z,34.83
2023-05-02T00:45:56.306Z,34.79
2023-05-02T00:46:56.133Z,34.80
2023-05-02T00:47:56.250Z,34.78
2023-05-02T00:48:56.174Z,34.83
2023-05-02T00:49:56.226Z,34.75
2023-05-02T00:50:56.776Z,34.75
2023-05-02T00:51:56.348Z,34.77
2023-05-02T00:52:56.411Z,34.81
2023-05-02T00:53:56.483Z,34.75
2023-05-02T00:54:56.548Z,34.75
2023-05-02T00:55:56.806Z,34.78
2023-05-02T00:56:56.588Z,34.78
2023-05-02T00:57:56.647Z,34.79
2023-05-02T00:58:56.684Z,34.78
2023-05-02T00:59:56.788Z,34.77
2023-05-02T01:00:56.796Z,34.79
2023-05-02T01:01:56.943Z,34.79
2023-05-02T01:02:56.972Z,34.80
2023-05-02T01:03:57.054Z,34.79
2023-05-02T01:04:57.019Z,34.75
2023-05-02T01:05:57.294Z,34.81
2023-05-02T01:06:57.044Z,34.78
2023-05-02T01:07:57.067Z,34.78
2023-05-02T01:08:57.060Z,34.78
2023-05-02T01:09:57.324Z,34.78
2023-05-02T01:10:57.341Z,34.75
2023-05-02T01:11:57.178Z,34.74
2023-05-02T01:12:57.241Z,34.74
2023-05-02T01:13:57.287Z,34.71
2023-05-02T01:14:57.375Z,34.72
2023-05-02T01:15:57.889Z,34.77
2023-05-02T01:16:57.482Z,34.75
2023-05-02T01:17:57.592Z,34.73
2023-05-02T01:18:57.549Z,34.75
2023-05-02T01:19:57.728Z,34.77
2023-05-02T01:20:57.813Z,34.74
2023-05-02T01:21:57.724Z,34.73
2023-05-02T01:22:57.744Z,34.73
2023-05-02T01:23:57.823Z,34.73
2023-05-02T01:24:57.844Z,34.73
2023-05-02T01:25:58.260Z,34.74
2023-05-02T01:26:57.943Z,34.73
2023-05-02T01:27:58.017Z,34.69
2023-05-02T01:28:58.012Z,34.74
2023-05-02T01:29:58.389Z,34.74
2023-05-02T01:30:58.282Z,34.75
2023-05-02T01:31:58.346Z,34.74
2023-05-02T01:32:58.279Z,34.75
2023-05-02T01:33:58.310Z,34.72
2023-05-02T01:34:58.326Z,34.73
2023-05-02T01:35:58.437Z,34.69
2023-05-02T01:36:58.465Z,34.71
2023-05-02T01:37:58.521Z,34.71
2023-05-02T01:38:58.605Z,34.73
2023-05-02T01:39:58.991Z,34.74
2023-05-02T01:40:58.809Z,34.73
2023-05-02T01:41:58.677Z,34.74
2023-05-02T01:42:58.718Z,34.70
2023-05-02T01:43:58.842Z,34.69
2023-05-02T01:44:58.820Z,34.69
2023-05-02T01:45:58.874Z,34.74
2023-05-02T01:46:59.020Z,34.71
2023-05-02T01:47:59.072Z,34.71
2023-05-02T01:48:59.034Z,34.74
2023-05-02T01:49:59.362Z,34.73
2023-05-02T01:50:59.169Z,34.71
2023-05-02T01:51:59.179Z,34.69
2023-05-02T01:52:59.258Z,34.68
2023-05-02T01:53:59.208Z,34.68
2023-05-02T01:54:59.279Z,34.70
2023-05-02T01:55:59.343Z,34.71
2023-05-02T01:56:59.306Z,34.70
2023-05-02T01:57:59.344Z,34.68
2023-05-02T01:58:59.409Z,34.65
2023-05-02T01:59:59.639Z,34.70
2023-05-02T02:00:59.527Z,34.70
2023-05-02T02:01:59.531Z,34.66
2023-05-02T02:02:59.596Z,34.67
2023-05-02T02:03:59.659Z,34.69
2023-05-02T02:04:59.648Z,34.63
2023-05-02T02:05:59.799Z,34.70
2023-05-02T02:06:59.689Z,34.66
2023-05-02T02:07:59.680Z,34.67
2023-05-02T02:08:59.690Z,34.69
2023-05-02T02:09:59.850Z,34.66
2023-05-02T02:10:59.741Z,34.71
2023-05-02T02:11:59.725Z,34.64
2023-05-02T02:12:59.768Z,34.69
2023-05-02T02:13:59.749Z,34.63
2023-05-02T02:14:59.769Z,34.66
2023-05-02T02:15:59.771Z,34.66
2023-05-02T02:17:00.951Z,34.66
2023-05-02T02:17:59.844Z,34.65
2023-05-02T02:18:59.846Z,34.63
2023-05-02T02:20:00.241Z,34.64
2023-05-02T02:20:59.959Z,34.65
2023-05-02T02:21:59.976Z,34.63
2023-05-02T02:22:59.971Z,34.63
2023-05-02T02:23:59.995Z,34.66
2023-05-02T02:24:59.950Z,34.64
2023-05-02T02:25:59.999Z,34.63
2023-05-02T02:27:00.006Z,34.64
2023-05-02T02:28:00.025Z,34.65
2023-05-02T02:29:00.007Z,34.63
2023-05-02T02:30:00.257Z,34.63
2023-05-02T02:31:00.045Z,34.64
2023-05-02T02:32:00.113Z,34.66
2023-05-02T02:33:00.106Z,34.63
2023-05-02T02:34:00.106Z,34.65
2023-05-02T02:35:00.060Z,34.68
2023-05-02T02:36:00.133Z,34.63
2023-05-02T02:37:00.333Z,34.62
2023-05-02T02:38:00.122Z,34.64
2023-05-02T02:39:00.189Z,34.63
2023-05-02T02:40:00.553Z,34.60
2023-05-02T02:41:00.257Z,34.61
2023-05-02T02:42:00.253Z,34.61
2023-05-02T02:43:00.266Z,34.66
2023-05-02T02:44:00.236Z,34.65
2023-05-02T02:45:00.291Z,34.61
2023-05-02T02:46:00.307Z,34.58
2023-05-02T02:47:00.250Z,34.63
2023-05-02T02:48:00.304Z,34.61
2023-05-02T02:49:00.281Z,34.66
2023-05-02T02:50:00.604Z,34.64
2023-05-02T02:51:00.290Z,34.63
2023-05-02T02:52:00.268Z,34.63
2023-05-02T02:53:00.244Z,34.67
2023-05-02T02:54:00.260Z,34.62
2023-05-02T02:55:00.307Z,34.60
2023-05-02T02:56:00.333Z,34.59
2023-05-02T02:57:00.359Z,34.63
2023-05-02T02:58:00.362Z,34.61
2023-05-02T02:59:00.365Z,34.61
2023-05-02T03:00:00.534Z,34.62
2023-05-02T03:01:00.352Z,34.58
2023-05-02T03:02:00.419Z,34.59
2023-05-02T03:03:00.491Z,34.61
2023-05-02T03:04:00.480Z,34.64
2023-05-02T03:05:00.395Z,34.56
2023-05-02T03:06:00.454Z,34.57
2023-05-02T03:07:00.829Z,34.57
2023-05-02T03:08:00.444Z,34.61
2023-05-02T03:09:00.438Z,34.62
2023-05-02T03:10:00.814Z,34.58
2023-05-02T03:11:00.414Z,34.58
2023-05-02T03:12:00.433Z,34.61
2023-05-02T03:13:00.440Z,34.62
2023-05-02T03:14:00.408Z,34.61
2023-05-02T03:15:00.453Z,34.57
2023-05-02T03:16:00.512Z,34.62
2023-05-02T03:17:00.480Z,34.62
2023-05-02T03:18:00.533Z,34.58
2023-05-02T03:19:00.585Z,34.63
2023-05-02T03:20:00.909Z,34.59
2023-05-02T03:21:00.615Z,34.59
2023-05-02T03:22:00.854Z,34.56
2023-05-02T03:23:00.669Z,34.59
2023-05-02T03:24:00.665Z,34.61
2023-05-02T03:25:00.806Z,34.58
2023-05-02T03:26:00.750Z,34.59
2023-05-02T03:27:00.740Z,34.58
2023-05-02T03:28:00.761Z,34.58
2023-05-02T03:29:00.707Z,34.56
2023-05-02T03:30:01.056Z,34.59
2023-05-02T03:31:00.869Z,34.56
2023-05-02T03:32:00.813Z,34.59
2023-05-02T03:33:00.808Z,34.60
2023-05-02T03:34:00.814Z,34.56
2023-05-02T03:35:00.822Z,34.54
2023-05-02T03:36:00.828Z,34.57
2023-05-02T03:37:00.919Z,34.55
2023-05-02T03:38:00.870Z,34.58
2023-05-02T03:39:00.872Z,34.57
2023-05-02T03:40:01.223Z,34.58
2023-05-02T03:41:00.860Z,34.56
2023-05-02T03:42:01.364Z,34.56
2023-05-02T03:43:00.911Z,34.58
2023-05-02T03:44:00.912Z,34.55
2023-05-02T03:45:00.889Z,34.55
2023-05-02T03:46:00.908Z,34.58
2023-05-02T03:47:00.965Z,34.58
2023-05-02T03:48:00.943Z,34.59
2023-05-02T03:49:00.894Z,34.54
2023-05-02T03:50:01.203Z,34.58
2023-05-02T03:51:00.901Z,34.53
2023-05-02T03:52:00.959Z,34.55
2023-05-02T03:53:00.941Z,34.57
2023-05-02T03:54:00.929Z,34.54
2023-05-02T03:55:00.930Z,34.58
2023-05-02T03:56:00.970Z,34.54
2023-05-02T03:57:00.986Z,34.57
2023-05-02T03:58:01.000Z,34.59
2023-05-02T03:59:01.010Z,34.53
2023-05-02T04:00:01.310Z,34.55
2023-05-02T04:01:01.049Z,34.53
2023-05-02T04:02:01.149Z,34.54
2023-05-02T04:03:01.131Z,34.54
2023-05-02T04:04:01.163Z,34.54
2023-05-02T04:05:01.109Z,34.53
2023-05-02T04:06:01.163Z,34.54
2023-05-02T04:07:01.130Z,34.57
2023-05-02T04:08:01.090Z,34.55
2023-05-02T04:09:01.136Z,34.52
2023-05-02T04:10:01.241Z,34.54
2023-05-02T04:11:01.202Z,34.54
2023-05-02T04:12:01.203Z,34.52
2023-05-02T04:13:01.213Z,34.53
2023-05-02T04:14:01.221Z,34.54
2023-05-02T04:15:01.251Z,34.53
2023-05-02T04:16:01.304Z,34.56
2023-05-02T04:17:01.364Z,34.55
2023-05-02T04:18:01.418Z,34.55
2023-05-02T04:19:01.415Z,34.54
2023-05-02T04:20:04.875Z,34.52
2023-05-02T04:21:01.375Z,34.50
2023-05-02T04:22:01.370Z,34.54
2023-05-02T04:23:01.344Z,34.49
2023-05-02T04:24:01.401Z,34.52
2023-05-02T04:25:01.349Z,34.52
2023-05-02T04:26:01.373Z,34.53
2023-05-02T04:27:01.857Z,34.50
2023-05-02T04:28:01.377Z,34.55
2023-05-02T04:29:01.339Z,34.53
2023-05-02T04:30:01.655Z,34.52
2023-05-02T04:31:01.400Z,34.50
2023-05-02T04:32:01.303Z,34.51
2023-05-02T04:33:01.351Z,34.54
2023-05-02T04:34:01.318Z,34.49
2023-05-02T04:35:01.268Z,34.50
2023-05-02T04:36:01.264Z,34.54
2023-05-02T04:37:01.282Z,34.51
2023-05-02T04:38:01.281Z,34.50
2023-05-02T04:39:01.249Z,34.53
2023-05-02T04:40:01.426Z,34.53
2023-05-02T04:41:01.260Z,34.54
2023-05-02T04:42:02.273Z,34.50
2023-05-02T04:43:01.239Z,34.49
2023-05-02T04:44:01.299Z,34.54
2023-05-02T04:45:01.236Z,34.50
2023-05-02T04:46:01.283Z,34.52
2023-05-02T04:47:01.200Z,34.49
2023-05-02T04:48:01.307Z,34.52
2023-05-02T04:49:01.211Z,34.54
2023-05-02T04:50:01.460Z,34.51
2023-05-02T04:51:01.197Z,34.50
2023-05-02T04:52:01.167Z,34.48
2023-05-02T04:53:01.180Z,34.83
2023-05-02T04:54:01.147Z,34.86
2023-05-02T04:55:01.160Z,34.82
2023-05-02T04:56:01.121Z,34.87
2023-05-02T04:57:01.173Z,34.96
2023-05-02T04:58:01.151Z,35.12
2023-05-02T04:59:01.104Z,35.12
2023-05-02T05:00:01.354Z,35.14
2023-05-02T05:01:01.124Z,35.30
2023-05-02T05:02:01.181Z,35.30
2023-05-02T05:03:01.935Z,35.38
2023-05-02T05:04:01.281Z,35.46
2023-05-02T05:05:01.089Z,35.48
2023-05-02T05:06:01.128Z,35.51
2023-05-02T05:07:01.168Z,35.53
2023-05-02T05:08:01.067Z,35.58
2023-05-02T05:09:01.051Z,35.63
2023-05-02T05:10:01.269Z,35.63
2023-05-02T05:11:01.013Z,35.66
2023-05-02T05:12:01.384Z,35.77
2023-05-02T05:13:01.025Z,35.77
2023-05-02T05:14:01.007Z,35.84
2023-05-02T05:15:00.999Z,35.88
2023-05-02T05:16:01.066Z,35.97
2023-05-02T05:17:01.019Z,35.81
2023-05-02T05:18:01.020Z,35.87
2023-05-02T05:19:01.030Z,35.91
2023-05-02T05:20:01.205Z,35.99
2023-05-02T05:21:00.964Z,35.88
2023-05-02T05:22:00.983Z,35.96
2023-05-02T05:23:00.951Z,35.98
2023-05-02T05:24:00.957Z,36.11
2023-05-02T05:25:00.915Z,36.00
2023-05-02T05:26:00.925Z,35.94
2023-05-02T05:27:00.913Z,35.85
2023-05-02T05:28:00.922Z,35.87
2023-05-02T05:29:00.925Z,35.95
2023-05-02T05:30:01.103Z,36.25
2023-05-02T05:31:00.920Z,36.40
2023-05-02T05:32:00.950Z,36.52
2023-05-02T05:33:00.915Z,36.61
2023-05-02T05:34:00.960Z,36.50
2023-05-02T05:35:00.886Z,36.47
2023-05-02T05:36:00.878Z,36.27
2023-05-02T05:37:00.856Z,36.36
2023-05-02T05:38:00.893Z,36.28
2023-05-02T05:39:00.859Z,36.76
2023-05-02T05:40:01.092Z,37.27
2023-05-02T05:41:00.838Z,37.86
2023-05-02T05:42:00.844Z,37.99
2023-05-02T05:43:00.825Z,38.15
2023-05-02T05:44:00.839Z,37.99
2023-05-02T05:45:01.026Z,38.04
2023-05-02T05:46:00.846Z,38.51
2023-05-02T05:47:00.908Z,39.30
2023-05-02T05:48:00.887Z,39.45
2023-05-02T05:49:00.831Z,39.66
2023-05-02T05:50:01.432Z,37.61
2023-05-02T05:51:00.841Z,37.80
2023-05-02T05:52:00.845Z,36.98
2023-05-02T05:53:00.853Z,36.91
2023-05-02T05:54:00.827Z,36.96
2023-05-02T05:55:00.816Z,37.55
2023-05-02T05:56:00.873Z,37.17
2023-05-02T05:57:00.895Z,37.46
2023-05-02T05:58:00.883Z,37.98
2023-05-02T05:59:01.009Z,38.26
2023-05-02T06:00:01.260Z,37.89
2023-05-02T06:01:01.118Z,37.93
2023-05-02T06:02:01.171Z,38.18
2023-05-02T06:03:01.333Z,39.06
2023-05-02T06:04:01.319Z,38.03
2023-05-02T06:05:01.398Z,38.92
2023-05-02T06:06:01.340Z,38.37
2023-05-02T06:07:01.421Z,38.42
2023-05-02T06:08:01.928Z,37.98
2023-05-02T06:09:01.474Z,38.29
2023-05-02T06:10:01.908Z,38.40
2023-05-02T06:11:01.617Z,39.45
2023-05-02T06:12:01.600Z,38.88
2023-05-02T06:13:01.938Z,39.10
2023-05-02T06:14:01.660Z,38.68
2023-05-02T06:15:01.671Z,38.78
2023-05-02T06:16:01.736Z,38.41
2023-05-02T06:17:01.733Z,38.85
2023-05-02T06:18:01.966Z,38.33
2023-05-02T06:19:01.808Z,39.23
2023-05-02T06:20:02.160Z,38.98
2023-05-02T06:21:01.844Z,38.63
2023-05-02T06:22:01.841Z,38.81
2023-05-02T06:23:01.880Z,38.74
2023-05-02T06:24:01.899Z,38.75
2023-05-02T06:25:01.933Z,39.18
2023-05-02T06:26:01.954Z,39.07
2023-05-02T06:27:01.926Z,38.49
2023-05-02T06:28:01.925Z,38.89
2023-05-02T06:29:01.977Z,38.96
2023-05-02T06:30:02.391Z,39.13
2023-05-02T06:31:02.133Z,38.94
2023-05-02T06:32:02.077Z,38.83
2023-05-02T06:33:02.441Z,38.89
2023-05-02T06:34:01.962Z,39.14
2023-05-02T06:35:02.046Z,38.74
2023-05-02T06:36:02.411Z,38.68
2023-05-02T06:37:01.956Z,39.12
2023-05-02T06:38:02.394Z,38.99
2023-05-02T06:39:01.910Z,39.03
2023-05-02T06:40:02.306Z,39.34
2023-05-02T06:41:01.948Z,38.99
2023-05-02T06:42:02.040Z,39.00
2023-05-02T06:43:02.051Z,39.20
2023-05-02T06:44:01.998Z,39.31
2023-05-02T06:45:02.038Z,39.10
2023-05-02T06:46:02.084Z,39.19
2023-05-02T06:47:02.127Z,38.73
2023-05-02T06:48:02.080Z,39.07
2023-05-02T06:49:02.090Z,39.44
2023-05-02T06:50:02.536Z,39.21
2023-05-02T06:51:02.161Z,39.45
2023-05-02T06:52:02.186Z,39.22
2023-05-02T06:53:02.241Z,38.82
2023-05-02T06:54:02.242Z,39.57
2023-05-02T06:55:02.325Z,39.05
2023-05-02T06:56:02.328Z,38.86
2023-05-02T06:57:02.344Z,39.22
2023-05-02T06:58:02.398Z,39.46
2023-05-02T06:59:02.400Z,39.72
2023-05-02T07:00:02.703Z,39.52
2023-05-02T07:01:02.528Z,39.95
2023-05-02T07:02:05.145Z,39.45
2023-05-02T07:03:02.443Z,38.53
2023-05-02T07:04:02.419Z,38.63
2023-05-02T07:05:02.392Z,37.98
2023-05-02T07:06:02.406Z,38.57
2023-05-02T07:07:02.398Z,39.01
2023-05-02T07:08:02.535Z,39.10
2023-05-02T07:09:02.386Z,38.94
2023-05-02T07:10:02.655Z,38.83
2023-05-02T07:11:02.385Z,38.71
2023-05-02T07:12:04.518Z,38.57
2023-05-02T07:13:02.376Z,38.76
2023-05-02T07:14:02.356Z,38.45
2023-05-02T07:15:02.366Z,38.54
2023-05-02T07:16:02.340Z,38.32
2023-05-02T07:17:02.409Z,38.33
2023-05-02T07:18:02.374Z,38.56
2023-05-02T07:19:02.345Z,38.56
2023-05-02T07:20:02.473Z,38.37
2023-05-02T07:21:02.284Z,38.27
2023-05-02T07:22:02.330Z,38.30
2023-05-02T07:23:02.281Z,38.19
2023-05-02T07:24:02.386Z,38.36
2023-05-02T07:25:02.255Z,38.27
2023-05-02T07:26:03.826Z,38.31
2023-05-02T07:27:02.249Z,38.07
2023-05-02T07:28:02.229Z,38.41
2023-05-02T07:29:02.270Z,38.32
2023-05-02T07:30:02.604Z,38.23
2023-05-02T07:31:02.269Z,38.20
2023-05-02T07:32:02.296Z,38.10
2023-05-02T07:33:02.264Z,38.07
2023-05-02T07:34:02.247Z,38.18
2023-05-02T07:35:02.210Z,38.25
2023-05-02T07:36:02.194Z,38.00
2023-05-02T07:37:02.212Z,38.37
2023-05-02T07:38:02.158Z,38.19
2023-05-02T07:39:02.214Z,38.22
2023-05-02T07:40:02.708Z,38.22
2023-05-02T07:41:02.180Z,38.28
2023-05-02T07:42:02.199Z,38.17
2023-05-02T07:43:02.216Z,38.23
2023-05-02T07:44:02.174Z,38.28
2023-05-02T07:45:02.122Z,38.52
2023-05-02T07:46:02.151Z,38.49
2023-05-02T07:47:02.187Z,38.34
2023-05-02T07:48:02.147Z,38.24
2023-05-02T07:49:02.147Z,38.46
2023-05-02T07:50:02.293Z,38.63
2023-05-02T07:51:02.095Z,38.37
2023-05-02T07:52:02.111Z,38.57
2023-05-02T07:53:02.133Z,38.83
2023-05-02T07:54:02.130Z,38.39
2023-05-02T07:55:02.070Z,38.42
2023-05-02T07:56:02.067Z,38.38
2023-05-02T07:57:02.140Z,38.60
2023-05-02T07:58:02.041Z,38.35
2023-05-02T07:59:03.149Z,38.25
2023-05-02T08:00:02.453Z,38.42
2023-05-02T08:01:02.066Z,38.48
2023-05-02T08:02:01.999Z,38.27
2023-05-02T08:03:02.124Z,38.21
2023-05-02T08:04:02.166Z,38.49
2023-05-02T08:05:02.075Z,38.28
2023-05-02T08:06:02.107Z,38.29
2023-05-02T08:07:02.048Z,38.27
2023-05-02T08:09:02.164Z,38.57
2023-05-02T08:10:02.628Z,38.27
2023-05-02T08:11:02.320Z,38.22
2023-05-02T08:12:02.333Z,38.22
2023-05-02T08:13:02.413Z,38.32
2023-05-02T08:14:02.471Z,38.26
2023-05-02T08:15:02.518Z,38.31
2023-05-02T08:16:02.627Z,38.24
2023-05-02T08:17:02.632Z,38.33
2023-05-02T08:18:02.746Z,38.29
2023-05-02T08:19:02.745Z,38.21
2023-05-02T08:20:02.957Z,38.18
2023-05-02T08:21:02.857Z,38.16
2023-05-02T08:22:02.929Z,38.19
2023-05-02T08:23:02.989Z,38.14
2023-05-02T08:24:03.048Z,38.14
2023-05-02T08:25:03.109Z,38.15
2023-05-02T08:26:03.143Z,38.12
2023-05-02T08:27:03.225Z,38.09
2023-05-02T08:28:03.295Z,38.05
2023-05-02T08:29:03.317Z,38.08
2023-05-02T08:30:03.725Z,38.08
2023-05-02T08:31:03.436Z,38.04
2023-05-02T08:32:03.613Z,38.05
2023-05-02T08:33:03.951Z,38.00
2023-05-02T08:34:03.627Z,38.04
2023-05-02T08:35:03.679Z,37.98
2023-05-02T08:36:03.750Z,38.04
2023-05-02T08:37:03.805Z,37.98
2023-05-02T08:38:03.873Z,38.02
2023-05-02T08:39:04.854Z,38.04
2023-05-02T08:40:04.160Z,37.99
2023-05-02T08:41:03.851Z,37.94
2023-05-02T08:42:03.878Z,38.04
2023-05-02T08:43:03.943Z,38.06
2023-05-02T08:44:03.870Z,38.09
2023-05-02T08:45:03.884Z,38.27
2023-05-02T08:46:03.823Z,38.37
2023-05-02T08:47:03.901Z,38.22
2023-05-02T08:48:03.906Z,38.17
2023-05-02T08:49:03.913Z,38.11
2023-05-02T08:50:04.085Z,38.11
2023-05-02T08:51:04.020Z,38.08
2023-05-02T08:52:04.089Z,38.12
2023-05-02T08:53:04.144Z,38.11
2023-05-02T08:54:04.187Z,38.16
2023-05-02T08:55:04.441Z,38.29
2023-05-02T08:56:04.338Z,38.16
2023-05-02T08:57:04.415Z,38.31
2023-05-02T08:58:04.444Z,38.37
2023-05-02T08:59:04.577Z,38.58
2023-05-02T09:00:04.543Z,38.30
2023-05-02T09:01:04.673Z,38.54
2023-05-02T09:02:04.652Z,38.48
2023-05-02T09:03:05.048Z,38.42
2023-05-02T09:04:04.773Z,38.57
2023-05-02T09:05:04.780Z,38.53
2023-05-02T09:06:04.889Z,38.56
2023-05-02T09:07:04.850Z,38.69
2023-05-02T09:08:04.892Z,38.75
2023-05-02T09:09:04.944Z,38.63
2023-05-02T09:10:04.974Z,38.76
2023-05-02T09:11:05.039Z,38.72
2023-05-02T09:12:05.019Z,38.86
2023-05-02T09:13:05.086Z,38.71
2023-05-02T09:14:05.119Z,38.84
2023-05-02T09:15:05.135Z,39.13
2023-05-02T09:16:05.255Z,39.16
2023-05-02T09:17:05.289Z,38.90
2023-05-02T09:18:06.064Z,39.09
2023-05-02T09:19:05.278Z,39.27
2023-05-02T09:20:05.290Z,38.99
2023-05-02T09:21:05.336Z,39.34
2023-05-02T09:22:05.370Z,39.20
2023-05-02T09:23:05.428Z,39.41
2023-05-02T09:24:05.426Z,39.41
2023-05-02T09:25:05.471Z,39.44
2023-05-02T09:26:05.534Z,39.33
2023-05-02T09:27:05.578Z,39.59
2023-05-02T09:28:05.564Z,39.18
2023-05-02T09:29:05.586Z,39.17
2023-05-02T09:30:06.500Z,39.47
2023-05-02T09:31:06.547Z,39.45
2023-05-02T09:32:05.757Z,39.37
2023-05-02T09:33:06.001Z,39.23
2023-05-02T09:34:05.798Z,39.21
2023-05-02T09:35:05.770Z,39.20
2023-05-02T09:36:05.819Z,39.07
2023-05-02T09:37:05.870Z,39.27
2023-05-02T09:38:06.024Z,39.17
2023-05-02T09:39:05.913Z,39.38
2023-05-02T09:40:05.944Z,39.27
2023-05-02T09:41:05.981Z,39.19
2023-05-02T09:42:06.037Z,39.25
2023-05-02T09:43:06.070Z,39.18
2023-05-02T09:44:06.090Z,39.57
2023-05-02T09:45:06.121Z,39.45
2023-05-02T09:46:06.244Z,39.32
2023-05-02T09:47:06.168Z,39.27
2023-05-02T09:48:06.490Z,39.36
2023-05-02T09:49:06.274Z,39.02
2023-05-02T09:50:06.351Z,38.96
2023-05-02T09:51:06.286Z,38.88
2023-05-02T09:52:06.345Z,38.87
2023-05-02T09:53:06.492Z,38.83
2023-05-02T09:54:06.409Z,38.80
2023-05-02T09:55:06.418Z,38.71
2023-05-02T09:56:06.478Z,38.43
2023-05-02T09:57:06.499Z,38.50
2023-05-02T09:58:06.982Z,38.41
2023-05-02T09:59:06.597Z,38.31
2023-05-02T10:00:06.649Z,38.19
2023-05-02T10:01:06.778Z,38.33
2023-05-02T10:02:06.730Z,37.80
2023-05-02T10:03:07.074Z,37.71
2023-05-02T10:04:06.880Z,37.76
2023-05-02T10:05:06.895Z,37.61
2023-05-02T10:06:06.950Z,37.62
2023-05-02T10:07:07.001Z,37.60
2023-05-02T10:08:07.474Z,37.74
2023-05-02T10:09:07.108Z,37.57
2023-05-02T10:10:07.154Z,37.27
2023-05-02T10:11:07.275Z,37.31
2023-05-02T10:12:07.261Z,37.26
2023-05-02T10:13:07.519Z,37.24
2023-05-02T10:14:07.421Z,37.20
2023-05-02T10:15:07.467Z,37.19
2023-05-02T10:16:07.630Z,37.23
2023-05-02T10:17:07.571Z,37.15
2023-05-02T10:18:07.687Z,37.16
2023-05-02T10:19:07.708Z,37.06
2023-05-02T10:20:07.889Z,37.01
2023-05-02T10:21:07.819Z,37.06
2023-05-02T10:22:07.844Z,37.06
2023-05-02T10:23:07.955Z,36.97
2023-05-02T10:24:08.008Z,37.04
2023-05-02T10:25:08.058Z,37.03
2023-05-02T10:26:08.084Z,36.94
2023-05-02T10:27:08.137Z,37.03
2023-05-02T10:28:08.092Z,37.08
2023-05-02T10:29:08.148Z,36.89
2023-05-02T10:30:08.156Z,36.90
2023-05-02T10:31:08.152Z,36.80
2023-05-02T10:32:08.332Z,36.77
2023-05-02T10:33:08.304Z,36.85
2023-05-02T10:34:08.320Z,36.72
2023-05-02T10:35:08.318Z,36.67
2023-05-02T10:36:08.350Z,36.67
2023-05-02T10:37:08.441Z,36.62
2023-05-02T10:38:08.431Z,36.52
2023-05-02T10:39:08.474Z,36.52
2023-05-02T10:40:08.531Z,36.46
2023-05-02T10:41:08.476Z,36.43
2023-05-02T10:42:08.507Z,36.31
2023-05-02T10:43:08.554Z,36.30
2023-05-02T10:44:08.589Z,36.16
2023-05-02T10:45:08.598Z,36.16
2023-05-02T10:46:08.609Z,36.01
2023-05-02T10:47:08.679Z,36.03
2023-05-02T10:48:08.730Z,36.32
2023-05-02T10:49:08.663Z,36.80
2023-05-02T10:50:08.714Z,36.84
2023-05-02T10:51:08.652Z,36.77
2023-05-02T10:52:08.682Z,36.79
2023-05-02T10:53:08.683Z,36.83
2023-05-02T10:54:08.731Z,36.82
2023-05-02T10:55:08.800Z,36.83
2023-05-02T10:56:08.799Z,36.80
2023-05-02T10:57:08.899Z,36.76
2023-05-02T10:58:08.987Z,36.77
2023-05-02T10:59:09.016Z,36.80
2023-05-02T11:00:09.084Z,36.78
2023-05-02T11:01:09.171Z,36.75
2023-05-02T11:02:09.285Z,36.71
2023-05-02T11:03:09.384Z,36.71
2023-05-02T11:04:09.353Z,36.74
2023-05-02T11:05:09.425Z,36.72
2023-05-02T11:06:09.484Z,36.70
2023-05-02T11:07:09.492Z,36.71
2023-05-02T11:08:10.000Z,36.65
2023-05-02T11:09:09.624Z,36.67
2023-05-02T11:10:09.727Z,36.67
2023-05-02T11:11:09.735Z,36.64
2023-05-02T11:12:09.830Z,36.63
2023-05-02T11:13:09.849Z,36.63
2023-05-02T11:14:09.934Z,36.57
2023-05-02T11:15:09.969Z,36.60
2023-05-02T11:16:10.121Z,36.56
2023-05-02T11:17:10.157Z,36.57
2023-05-02T11:18:10.546Z,36.56
2023-05-02T11:19:10.194Z,36.52
2023-05-02T11:20:10.252Z,36.54
2023-05-02T11:21:10.294Z,36.48
2023-05-02T11:22:10.371Z,36.50
2023-05-02T11:23:10.508Z,36.46
2023-05-02T11:24:10.431Z,36.42
2023-05-02T11:25:10.487Z,36.45
2023-05-02T11:26:10.514Z,36.41
2023-05-02T11:27:10.602Z,36.43
2023-05-02T11:28:10.640Z,36.15
2023-05-02T11:29:10.690Z,36.18
2023-05-02T11:30:10.813Z,35.87
2023-05-02T11:31:10.768Z,36.13
2023-05-02T11:32:10.885Z,35.49
2023-05-02T11:33:10.971Z,35.22
2023-05-02T11:34:10.918Z,35.40
2023-05-02T11:35:11.009Z,35.86
2023-05-02T11:36:11.025Z,35.35
2023-05-02T11:37:11.105Z,35.06
2023-05-02T11:38:11.567Z,35.16
2023-05-02T11:39:11.207Z,35.09
2023-05-02T11:40:11.342Z,35.30
2023-05-02T11:41:11.233Z,35.26
2023-05-02T11:42:11.260Z,34.90
2023-05-02T11:43:11.355Z,35.20
2023-05-02T11:44:11.502Z,35.04
2023-05-02T11:45:11.393Z,34.84
2023-05-02T11:46:11.409Z,34.87
2023-05-02T11:47:11.313Z,34.71
2023-05-02T11:48:11.383Z,34.83
2023-05-02T11:49:12.631Z,34.71
2023-05-02T11:50:11.499Z,34.74
2023-05-02T11:51:11.460Z,34.67
2023-05-02T11:52:11.639Z,34.68
2023-05-02T11:53:11.445Z,34.73
2023-05-02T11:54:11.432Z,34.58
2023-05-02T11:55:11.872Z,34.60
2023-05-02T11:56:11.477Z,34.55
2023-05-02T11:57:11.444Z,34.49
2023-05-02T11:58:11.429Z,34.71
2023-05-02T11:59:11.414Z,34.47
2023-05-02T12:00:11.470Z,34.41
2023-05-02T12:01:11.420Z,34.75
2023-05-02T12:02:11.457Z,34.41
2023-05-02T12:03:11.526Z,34.38
2023-05-02T12:04:11.440Z,34.41
2023-05-02T12:05:11.516Z,34.33
2023-05-02T12:06:11.903Z,34.48
2023-05-02T12:07:12.221Z,34.21
2023-05-02T12:08:11.407Z,34.34
2023-05-02T12:09:11.378Z,34.28
2023-05-02T12:10:11.518Z,34.29
2023-05-02T12:11:11.396Z,34.26
2023-05-02T12:12:11.390Z,34.33
2023-05-02T12:13:12.482Z,34.58
2023-05-02T12:14:11.418Z,34.35
2023-05-02T12:15:11.382Z,34.43
2023-05-02T12:16:11.446Z,34.43
2023-05-02T12:17:11.379Z,34.41
2023-05-02T12:18:11.386Z,34.53
2023-05-02T12:19:11.531Z,34.49
2023-05-02T12:20:11.471Z,34.52
2023-05-02T12:21:11.366Z,34.47
2023-05-02T12:22:11.367Z,34.46
2023-05-02T12:23:11.365Z,34.50
2023-05-02T12:24:11.367Z,34.46
2023-05-02T12:25:11.341Z,34.57
2023-05-02T12:26:11.304Z,34.68
2023-05-02T12:27:11.303Z,34.69
2023-05-02T12:28:11.353Z,34.86
2023-05-02T12:29:11.283Z,34.75
2023-05-02T12:30:11.306Z,35.07
2023-05-02T12:31:11.309Z,35.25
2023-05-02T12:32:11.268Z,35.23
2023-05-02T12:33:11.318Z,35.20
2023-05-02T12:34:11.287Z,35.36
2023-05-02T12:35:11.254Z,35.44
2023-05-02T12:36:11.243Z,35.46
2023-05-02T12:37:11.254Z,35.62
2023-05-02T12:38:11.210Z,35.64
2023-05-02T12:39:11.585Z,35.85
2023-05-02T12:40:11.241Z,35.75
2023-05-02T12:41:11.253Z,36.00
2023-05-02T12:42:11.296Z,35.83
2023-05-02T12:43:11.361Z,36.00
2023-05-02T12:44:11.346Z,36.05
2023-05-02T12:45:11.385Z,36.20
2023-05-02T12:46:11.479Z,36.13
2023-05-02T12:47:11.491Z,36.08
2023-05-02T12:48:11.595Z,36.27
2023-05-02T12:49:11.540Z,36.65
2023-05-02T12:50:11.580Z,36.31
2023-05-02T12:51:11.610Z,37.34
2023-05-02T12:52:11.621Z,36.58
2023-05-02T12:53:11.674Z,36.61
2023-05-02T12:54:12.042Z,36.45